aviador You're here:

CWWU Decoded Metar

INGENIKA POINT in BC, CANADA
Report Time2017-12-15 14:00:00
UTC Time2017-12-15 14:12:02
Flight Rules vfr VFR
Wind230° at 17 Gusting to 26 kt
W.Rank230° ranks 2
Current wind is above 230° avg. (10.8)
Visibility9999 m
Phenomena:N/A
Clouds:Broken 032 Hf
Broken 046 Hf
Expected CloudBase > 2,400 ft AGL from Temp-Dew spread
Ceiling3,200 ft
Temp01°C (ISA -10)
Dew Point-5°C (65% RH)
AAT-7.7°C
QNH1004 hPa
Density Alt1,444 ft
Elevation2,231 ft
Report Wrong Elevation
Raw Report
CWWU 151400Z 23017G26KT 15SM BKN032 BKN046 01/M05 A2965 RMK CU5SC1
SLP042=

Extra information for CWWU:More info

Metar Taf Metar & Taf Last 4 Metars F.Rules Stats Wind Profile Meteogram Temp Stats Airport Information Weather charts Add Link Nearby VenuesMetar ALERT Operation Metar Decoded Social comments